Time;durP1;ratioP1;P1;durP2;ratioP2;P2;SDS_P1;SDS_P2;PMS_P1;PMS_P2;Temp;Humidity;BMP_temperature;BMP_pressure;BME280_temperature;BME280_humidity;BME280_pressure;Samples;Min_cycle;Max_cycle;Signal;HPM_P1;HPM_P2
2022/01/03 00:02:22;;;;;;;2.78;1.17;;;12.70;99.90;;;;;;5099132;28;20194;-85
2022/01/03 00:04:50;;;;;;;2.90;1.45;;;12.70;99.90;;;;;;5101032;28;20206;-87
2022/01/03 00:07:17;;;;;;;3.00;1.20;;;12.70;99.90;;;;;;5094787;28;20192;-86
2022/01/03 00:09:45;;;;;;;3.90;1.45;;;12.60;99.90;;;;;;5091068;28;20643;-86
2022/01/03 00:12:13;;;;;;;2.92;1.08;;;12.60;99.90;;;;;;5095655;28;20273;-83
2022/01/03 00:14:40;;;;;;;2.53;1.25;;;12.70;99.90;;;;;;5111449;28;20214;-86
2022/01/03 00:17:09;;;;;;;4.47;1.30;;;12.70;99.90;;;;;;5108150;28;20214;-84
2022/01/03 00:19:36;;;;;;;5.13;1.30;;;12.70;99.90;;;;;;5091626;28;20211;-84
2022/01/03 00:22:07;;;;;;;2.67;1.30;;;12.70;99.90;;;;;;5095405;28;20202;-84
2022/01/03 00:24:36;;;;;;;2.55;1.30;;;12.70;99.90;;;;;;5101227;28;20207;-84
2022/01/03 00:27:07;;;;;;;2.30;1.30;;;12.70;99.90;;;;;;5109278;28;20215;-83
2022/01/03 00:29:43;;;;;;;2.17;1.20;;;12.70;99.90;;;;;;5095106;28;20225;-85
2022/01/03 00:32:12;;;;;;;1.80;1.10;;;12.70;99.90;;;;;;5092680;28;20206;-83
2022/01/03 00:34:40;;;;;;;4.18;1.38;;;12.60;99.90;;;;;;5099996;28;20286;-84
2022/01/03 00:37:10;;;;;;;3.65;1.20;;;12.60;99.90;;;;;;5092862;28;20199;-84
2022/01/03 00:39:38;;;;;;;2.78;1.13;;;12.60;99.90;;;;;;5095844;28;20200;-84
2022/01/03 00:42:06;;;;;;;1.95;1.33;;;12.60;99.90;;;;;;5106775;28;20213;-84
2022/01/03 00:44:34;;;;;;;2.05;1.33;;;12.60;99.90;;;;;;5095081;28;20199;-81
2022/01/03 00:47:01;;;;;;;4.95;1.33;;;12.70;99.90;;;;;;5098444;28;20336;-81
2022/01/03 00:49:30;;;;;;;2.90;1.50;;;12.70;99.90;;;;;;5097355;28;20647;-81
2022/01/03 00:51:57;;;;;;;3.97;1.48;;;12.60;99.90;;;;;;5094814;28;20297;-80
2022/01/03 00:54:24;;;;;;;3.15;1.63;;;12.50;99.90;;;;;;5094285;28;20274;-80
2022/01/03 00:56:54;;;;;;;2.05;1.10;;;12.50;99.90;;;;;;5093743;27;20616;-80
2022/01/03 00:59:29;;;;;;;2.58;1.10;;;12.50;99.90;;;;;;5097526;28;20214;-81
2022/01/03 01:02:01;;;;;;;2.50;1.10;;;12.60;99.90;;;;;;5094697;28;20919;-81
2022/01/03 01:04:30;;;;;;;3.90;1.13;;;12.50;99.90;;;;;;5114476;28;20275;-80
2022/01/03 01:06:58;;;;;;;2.70;1.00;;;12.60;99.90;;;;;;5113381;27;20250;-80
2022/01/03 01:09:27;;;;;;;4.20;1.42;;;12.60;99.90;;;;;;5112362;27;20210;-81
2022/01/03 01:11:56;;;;;;;2.35;1.02;;;12.50;99.90;;;;;;5098047;28;20244;-80
2022/01/03 01:14:26;;;;;;;2.60;0.93;;;12.50;99.90;;;;;;5100030;28;20207;-81
2022/01/03 01:16:53;;;;;;;5.40;1.88;;;12.50;99.90;;;;;;5093910;28;20223;-80
2022/01/03 01:19:22;;;;;;;2.22;1.40;;;12.50;99.90;;;;;;5094428;28;20226;-80
2022/01/03 01:21:52;;;;;;;2.90;1.10;;;12.60;99.90;;;;;;5094041;28;20230;-81
2022/01/03 01:24:22;;;;;;;3.15;1.30;;;12.50;99.90;;;;;;5093434;28;20206;-80
2022/01/03 01:29:36;;;;;;;3.83;1.20;;;12.40;99.90;;;;;;5103005;28;20561;-81
2022/01/03 01:32:06;;;;;;;3.50;1.60;;;12.40;99.90;;;;;;5093977;27;20707;-80
2022/01/03 01:34:36;;;;;;;2.47;1.15;;;12.40;99.90;;;;;;5093900;28;20200;-81
2022/01/03 01:37:09;;;;;;;3.15;1.10;;;12.50;99.90;;;;;;5093484;28;20627;-80
2022/01/03 01:39:36;;;;;;;2.15;1.58;;;12.40;99.90;;;;;;5096458;28;20207;-81
2022/01/03 01:42:05;;;;;;;1.92;1.10;;;12.40;99.90;;;;;;5100236;28;20227;-80
2022/01/03 01:44:35;;;;;;;4.25;1.20;;;12.40;99.90;;;;;;5099239;28;20232;-81
2022/01/03 01:47:05;;;;;;;3.13;1.20;;;12.30;99.90;;;;;;5093916;28;20191;-80
2022/01/03 01:49:39;;;;;;;3.08;1.23;;;12.30;99.90;;;;;;5098983;28;20619;-81
2022/01/03 01:52:16;;;;;;;3.00;1.30;;;12.40;99.90;;;;;;5093471;28;20200;-81
2022/01/03 01:54:51;;;;;;;3.45;1.60;;;12.40;99.90;;;;;;5093899;28;20202;-81
2022/01/03 01:57:20;;;;;;;1.83;1.13;;;12.40;99.90;;;;;;5101109;28;20244;-81
2022/01/03 02:00:01;;;;;;;2.53;1.00;;;12.30;99.90;;;;;;5096896;28;20200;-80
2022/01/03 02:02:35;;;;;;;2.35;1.05;;;12.30;99.90;;;;;;5093406;27;20346;-81
2022/01/03 02:05:17;;;;;;;3.22;1.25;;;12.30;99.90;;;;;;5092971;28;20615;-79
2022/01/03 02:08:08;;;;;;;3.17;1.35;;;12.30;99.90;;;;;;5093359;28;20245;-81
2022/01/03 02:10:39;;;;;;;3.25;1.15;;;12.30;99.90;;;;;;5087546;28;20211;-81
2022/01/03 02:13:07;;;;;;;2.22;1.25;;;12.30;99.90;;;;;;5096557;28;20662;-81
2022/01/03 02:15:34;;;;;;;2.28;1.10;;;12.30;99.90;;;;;;5093945;28;20219;-81
2022/01/03 02:18:02;;;;;;;2.63;1.30;;;12.30;99.90;;;;;;5093125;28;20230;-81
2022/01/03 02:20:32;;;;;;;3.03;1.40;;;12.30;99.90;;;;;;5100330;28;20206;-81
2022/01/03 02:22:59;;;;;;;5.20;1.40;;;12.30;99.90;;;;;;5093814;28;20188;-81
2022/01/03 02:25:27;;;;;;;2.65;1.70;;;12.30;99.90;;;;;;5092657;28;20216;-81
2022/01/03 02:27:55;;;;;;;2.97;1.30;;;12.30;99.90;;;;;;5098267;28;20187;-80
2022/01/03 02:30:25;;;;;;;3.17;1.40;;;12.30;99.90;;;;;;5110494;28;20248;-81
2022/01/03 02:32:52;;;;;;;3.95;1.33;;;12.30;99.90;;;;;;5102004;28;20207;-81
2022/01/03 02:35:20;;;;;;;4.97;1.65;;;12.30;99.90;;;;;;5095932;28;20226;-81
2022/01/03 02:37:49;;;;;;;2.97;1.30;;;12.20;99.90;;;;;;5102908;28;20290;-81
2022/01/03 02:40:18;;;;;;;3.90;1.35;;;12.20;99.90;;;;;;5090969;28;20203;-80
2022/01/03 02:42:46;;;;;;;3.17;1.83;;;12.20;99.90;;;;;;5094594;28;20195;-80
2022/01/03 02:45:15;;;;;;;2.75;1.40;;;12.10;99.90;;;;;;5097470;28;20219;-81
2022/01/03 02:47:45;;;;;;;2.75;1.10;;;12.00;99.90;;;;;;5092851;28;20207;-80
2022/01/03 02:50:14;;;;;;;2.65;1.20;;;12.10;99.90;;;;;;5106610;28;20261;-81
2022/01/03 02:52:42;;;;;;;3.75;1.38;;;12.10;99.90;;;;;;5111915;28;20662;-80
2022/01/03 02:55:14;;;;;;;4.88;1.60;;;12.10;99.90;;;;;;5097581;28;20215;-80
2022/01/03 02:57:43;;;;;;;2.88;1.00;;;12.00;99.90;;;;;;5093011;28;20206;-80
2022/01/03 03:00:14;;;;;;;4.85;1.75;;;12.10;99.90;;;;;;5092070;28;20196;-80
2022/01/03 03:02:41;;;;;;;4.13;1.52;;;12.00;99.90;;;;;;5097997;28;20226;-81
2022/01/03 03:05:10;;;;;;;2.25;1.10;;;12.00;99.90;;;;;;5112007;28;20215;-80
2022/01/03 03:07:39;;;;;;;4.75;1.85;;;12.10;99.90;;;;;;5094210;28;20831;-80
2022/01/03 03:10:08;;;;;;;3.00;1.35;;;12.00;99.90;;;;;;5092743;27;20210;-80
2022/01/03 03:12:37;;;;;;;4.60;1.35;;;12.00;99.90;;;;;;5092612;28;20195;-80
2022/01/03 03:15:06;;;;;;;3.28;1.50;;;12.00;99.90;;;;;;5092298;28;20234;-80
2022/01/03 03:17:33;;;;;;;3.05;1.40;;;12.00;99.90;;;;;;5093197;28;20206;-81
2022/01/03 03:20:06;;;;;;;4.03;1.60;;;11.90;99.90;;;;;;5091763;28;20191;-80
2022/01/03 03:22:33;;;;;;;3.53;1.30;;;11.90;99.90;;;;;;5097367;28;20218;-81
2022/01/03 03:25:02;;;;;;;4.60;1.30;;;11.90;99.90;;;;;;5107221;28;20784;-81
2022/01/03 03:27:29;;;;;;;2.50;1.20;;;11.90;99.90;;;;;;5094045;28;20210;-81
2022/01/03 03:29:58;;;;;;;2.38;1.35;;;11.90;99.90;;;;;;5094326;28;20195;-80
2022/01/03 03:32:26;;;;;;;3.38;1.52;;;11.90;99.90;;;;;;5091020;28;20209;-80
2022/01/03 03:34:53;;;;;;;2.88;1.10;;;11.80;99.90;;;;;;5092418;28;20219;-80
2022/01/03 03:37:21;;;;;;;3.20;1.30;;;11.80;99.90;;;;;;5097104;28;20210;-81
2022/01/03 03:39:48;;;;;;;5.97;1.58;;;11.70;99.90;;;;;;5097802;28;20202;-80
2022/01/03 03:42:16;;;;;;;3.20;1.40;;;11.70;99.90;;;;;;5091976;28;20275;-80
2022/01/03 03:44:45;;;;;;;3.50;1.60;;;11.80;99.90;;;;;;5091923;28;20220;-81
2022/01/03 03:47:14;;;;;;;2.03;1.25;;;11.80;99.90;;;;;;5091874;28;20204;-80
2022/01/03 03:49:41;;;;;;;3.70;1.63;;;11.80;99.90;;;;;;5096145;28;20210;-80
2022/01/03 03:52:09;;;;;;;3.30;1.50;;;11.60;99.90;;;;;;5091377;28;20721;-80
2022/01/03 03:54:36;;;;;;;4.22;1.20;;;11.60;99.90;;;;;;5091813;28;20618;-81
2022/01/03 03:57:04;;;;;;;5.00;1.40;;;11.60;99.90;;;;;;5097400;28;20278;-81
2022/01/03 03:59:32;;;;;;;4.18;1.45;;;11.60;99.90;;;;;;5091511;28;20282;-80
2022/01/03 04:02:01;;;;;;;4.05;1.40;;;11.60;99.90;;;;;;5091552;28;20223;-81
2022/01/03 04:04:29;;;;;;;3.92;1.38;;;11.60;99.90;;;;;;5091175;28;20221;-81
2022/01/03 04:06:56;;;;;;;7.40;1.80;;;11.60;99.90;;;;;;5092331;28;20610;-81
2022/01/03 04:09:23;;;;;;;5.22;1.30;;;11.50;99.90;;;;;;5091923;28;20286;-80
2022/01/03 04:11:51;;;;;;;4.13;1.40;;;11.60;99.90;;;;;;5098837;28;20686;-81
2022/01/03 04:14:18;;;;;;;4.90;1.70;;;11.60;99.90;;;;;;5095329;28;20221;-80
2022/01/03 04:16:46;;;;;;;6.45;1.80;;;11.50;99.90;;;;;;5095866;28;20286;-80
2022/01/03 04:19:13;;;;;;;2.15;1.42;;;11.50;99.90;;;;;;5095183;28;20196;-80
2022/01/03 04:21:42;;;;;;;3.40;1.50;;;11.50;99.90;;;;;;5101323;28;20778;-80
2022/01/03 04:24:11;;;;;;;5.93;1.60;;;11.50;99.90;;;;;;5107333;28;20601;-81
2022/01/03 04:26:40;;;;;;;3.45;1.45;;;11.50;99.90;;;;;;5095526;28;20234;-80
2022/01/03 04:29:08;;;;;;;3.63;1.30;;;11.50;99.90;;;;;;5095482;28;20670;-80
2022/01/03 04:31:35;;;;;;;3.58;1.15;;;11.50;99.90;;;;;;5094993;28;20256;-79
2022/01/03 04:34:02;;;;;;;5.57;1.30;;;11.40;99.90;;;;;;5113141;28;20197;-80
2022/01/03 04:36:29;;;;;;;1.80;1.20;;;11.40;99.90;;;;;;5100208;28;20204;-80
2022/01/03 04:38:57;;;;;;;3.85;1.40;;;11.40;99.90;;;;;;5105153;28;20555;-80
2022/01/03 04:41:24;;;;;;;4.45;1.40;;;11.40;99.90;;;;;;5103006;28;20273;-80
2022/01/03 04:43:52;;;;;;;4.93;1.60;;;11.40;99.90;;;;;;5099323;28;20200;-81
2022/01/03 04:46:19;;;;;;;3.60;1.40;;;11.40;99.90;;;;;;5110588;28;20677;-82
2022/01/03 04:48:46;;;;;;;3.65;1.73;;;11.40;99.90;;;;;;5100564;28;20196;-82
2022/01/03 04:51:13;;;;;;;2.00;1.00;;;11.10;99.90;;;;;;5116636;28;20246;-81
2022/01/03 04:53:40;;;;;;;2.90;1.25;;;10.70;99.90;;;;;;5119888;27;20210;-83
2022/01/03 04:56:10;;;;;;;2.55;0.88;;;10.40;99.90;;;;;;5113906;28;20317;-82
2022/01/03 04:58:39;;;;;;;5.45;1.33;;;10.20;99.90;;;;;;5126150;28;20209;-82
2022/01/03 05:01:06;;;;;;;4.15;0.90;;;10.00;99.90;;;;;;5131311;28;20212;-84
2022/01/03 05:03:33;;;;;;;4.25;1.20;;;9.90;99.90;;;;;;5119911;28;20641;-83
2022/01/03 05:06:10;;;;;;;2.58;1.05;;;9.80;99.90;;;;;;5101739;28;20224;-83
2022/01/03 05:08:37;;;;;;;3.00;1.08;;;9.60;99.90;;;;;;5108234;28;20239;-84
2022/01/03 05:11:04;;;;;;;3.33;0.95;;;9.50;99.90;;;;;;5139808;28;20190;-83
2022/01/03 05:13:33;;;;;;;3.65;1.48;;;9.50;99.90;;;;;;5131511;27;20205;-83
2022/01/03 05:16:01;;;;;;;6.22;1.90;;;9.40;99.90;;;;;;5129799;27;20235;-83
2022/01/03 05:18:29;;;;;;;4.28;1.60;;;9.40;99.90;;;;;;5120296;27;20288;-83
2022/01/03 05:20:57;;;;;;;4.07;1.35;;;9.40;99.90;;;;;;5107126;28;20194;-83
2022/01/03 05:23:24;;;;;;;4.25;1.60;;;9.40;99.90;;;;;;5103074;28;20225;-83
2022/01/03 05:25:51;;;;;;;2.13;1.05;;;9.40;99.90;;;;;;5101956;28;20227;-83
2022/01/03 05:28:18;;;;;;;4.50;1.50;;;9.40;99.90;;;;;;5101313;28;20252;-83
2022/01/03 05:30:47;;;;;;;5.72;1.60;;;9.40;99.90;;;;;;5099401;28;20226;-83
2022/01/03 05:33:14;;;;;;;2.70;1.98;;;9.40;99.90;;;;;;5096988;28;20209;-84
2022/01/03 05:35:41;;;;;;;3.97;1.40;;;9.50;99.90;;;;;;5099698;28;20216;-83
2022/01/03 05:38:08;;;;;;;3.50;1.40;;;9.60;99.90;;;;;;5094051;28;20198;-83
2022/01/03 05:40:35;;;;;;;3.15;1.23;;;9.70;99.90;;;;;;5093491;28;20293;-83
2022/01/03 05:43:02;;;;;;;3.45;1.42;;;9.60;99.90;;;;;;5095720;28;20562;-82
2022/01/03 05:45:29;;;;;;;3.22;1.20;;;9.60;99.90;;;;;;5097682;27;20749;-82
2022/01/03 05:47:58;;;;;;;4.82;1.70;;;9.60;99.90;;;;;;5094544;27;20215;-83
2022/01/03 05:50:25;;;;;;;5.60;1.80;;;9.70;99.90;;;;;;5105131;28;20199;-83
2022/01/03 05:52:52;;;;;;;4.20;1.40;;;9.70;99.90;;;;;;5093706;28;20227;-84
2022/01/03 05:55:20;;;;;;;5.85;1.70;;;9.80;99.90;;;;;;5095955;28;20240;-83
2022/01/03 05:57:47;;;;;;;8.00;1.85;;;9.80;99.90;;;;;;5111287;28;20311;-82
2022/01/03 06:00:17;;;;;;;2.65;1.77;;;9.80;99.90;;;;;;5095307;28;20309;-83
2022/01/03 06:02:44;;;;;;;3.30;1.63;;;9.80;99.90;;;;;;5112802;28;20312;-83
2022/01/03 06:05:20;;;;;;;3.58;1.48;;;9.80;99.90;;;;;;5098678;28;20230;-83
2022/01/03 06:07:48;;;;;;;3.33;1.65;;;9.80;99.90;;;;;;5113825;28;20230;-82
2022/01/03 06:10:17;;;;;;;4.60;1.60;;;9.70;99.90;;;;;;5098271;28;20195;-82
2022/01/03 06:12:45;;;;;;;4.22;1.48;;;9.70;99.90;;;;;;5093142;28;20199;-83
2022/01/03 06:15:15;;;;;;;4.95;1.38;;;9.70;99.90;;;;;;5093276;28;20249;-83
2022/01/03 06:17:43;;;;;;;3.88;1.60;;;9.70;99.90;;;;;;5082769;28;20615;-82
2022/01/03 06:20:11;;;;;;;4.03;1.33;;;9.90;99.90;;;;;;5101016;27;20225;-82
2022/01/03 06:22:41;;;;;;;4.35;2.17;;;9.80;99.90;;;;;;5112951;28;20232;-82
2022/01/03 06:25:08;;;;;;;7.88;1.60;;;9.80;99.90;;;;;;5093079;28;20225;-83
2022/01/03 06:27:35;;;;;;;6.63;1.85;;;9.80;99.90;;;;;;5100763;28;20633;-83
2022/01/03 06:30:03;;;;;;;4.07;1.60;;;9.80;99.90;;;;;;5094299;27;20501;-83
2022/01/03 06:32:30;;;;;;;3.80;2.10;;;9.80;99.90;;;;;;5092685;28;20198;-82
2022/01/03 06:34:57;;;;;;;2.90;1.25;;;9.70;99.90;;;;;;5094950;28;20249;-82
2022/01/03 06:37:24;;;;;;;3.08;1.35;;;9.70;99.90;;;;;;5093037;28;20213;-83
2022/01/03 06:39:53;;;;;;;5.93;1.40;;;9.70;99.90;;;;;;5085128;28;20331;-82
2022/01/03 06:42:20;;;;;;;5.70;1.30;;;9.70;99.90;;;;;;5091358;28;20312;-83
2022/01/03 06:44:48;;;;;;;2.53;1.17;;;9.70;99.90;;;;;;5109240;28;20221;-82
2022/01/03 06:47:17;;;;;;;7.10;1.92;;;9.80;99.90;;;;;;5095612;28;20268;-82
2022/01/03 06:49:44;;;;;;;5.90;1.75;;;9.80;99.90;;;;;;5078345;28;20248;-83
2022/01/03 06:52:11;;;;;;;4.78;1.30;;;9.80;99.90;;;;;;5099336;28;20661;-83
2022/01/03 06:54:38;;;;;;;3.35;1.60;;;9.80;99.90;;;;;;5092854;28;20222;-82
2022/01/03 06:57:06;;;;;;;4.40;1.42;;;9.80;99.90;;;;;;5098305;28;20627;-82
2022/01/03 06:59:34;;;;;;;4.10;1.30;;;9.80;99.90;;;;;;5097473;28;20663;-83
2022/01/03 07:02:01;;;;;;;6.57;2.15;;;9.80;99.90;;;;;;5093037;28;20262;-83
2022/01/03 07:04:28;;;;;;;3.53;1.45;;;9.80;99.90;;;;;;5095152;28;20250;-81
2022/01/03 07:06:56;;;;;;;4.20;1.25;;;9.80;99.90;;;;;;5092729;28;20222;-83
2022/01/03 07:09:22;;;;;;;4.07;1.80;;;9.80;99.90;;;;;;5094300;28;20290;-83
2022/01/03 07:11:49;;;;;;;3.55;1.30;;;9.80;99.90;;;;;;5091705;28;20750;-81
2022/01/03 07:19:53;;;;;;;2.90;1.23;;;9.90;99.90;;;;;;5096649;28;20197;-82
2022/01/03 07:22:23;;;;;;;4.78;1.65;;;9.80;99.90;;;;;;5103815;28;20221;-83
2022/01/03 07:24:52;;;;;;;5.60;1.30;;;9.80;99.90;;;;;;5110008;28;20212;-81
2022/01/03 07:27:19;;;;;;;3.95;1.58;;;9.70;99.90;;;;;;5113040;28;20277;-80
2022/01/03 07:29:50;;;;;;;5.63;1.85;;;9.80;99.90;;;;;;5107188;28;20196;-85
2022/01/03 07:32:17;;;;;;;4.47;1.45;;;9.80;99.90;;;;;;5098034;28;20198;-90
2022/01/03 07:34:45;;;;;;;5.50;2.00;;;9.90;99.90;;;;;;5106356;28;20225;-83
2022/01/03 07:37:12;;;;;;;4.57;1.50;;;9.90;99.90;;;;;;5094290;28;20199;-84
2022/01/03 07:39:39;;;;;;;5.95;1.73;;;9.80;99.90;;;;;;5092713;28;20209;-83
2022/01/03 07:42:07;;;;;;;6.70;1.75;;;9.70;99.90;;;;;;5089433;28;20227;-77
2022/01/03 07:44:34;;;;;;;6.22;2.10;;;9.50;99.90;;;;;;5091583;28;20215;-77
2022/01/03 07:47:03;;;;;;;3.90;1.60;;;9.40;99.90;;;;;;5091114;28;20288;-77
2022/01/03 07:49:30;;;;;;;7.65;2.05;;;9.30;99.90;;;;;;5094478;28;20225;-77
2022/01/03 07:51:58;;;;;;;5.50;1.70;;;9.30;99.90;;;;;;5098970;28;20285;-76
2022/01/03 07:54:25;;;;;;;7.55;1.98;;;9.30;99.90;;;;;;5095742;28;20222;-76
2022/01/03 07:56:52;;;;;;;6.50;1.70;;;9.30;99.90;;;;;;5092810;28;20658;-77
2022/01/03 07:59:19;;;;;;;6.53;1.63;;;9.20;99.90;;;;;;5090908;28;20260;-77
2022/01/03 08:01:46;;;;;;;6.07;1.83;;;9.20;99.90;;;;;;5090788;28;20233;-76
2022/01/03 08:04:15;;;;;;;3.70;1.50;;;9.10;99.90;;;;;;5093865;28;20232;-77
2022/01/03 08:06:41;;;;;;;2.95;1.65;;;9.20;99.90;;;;;;5100690;28;20225;-76
2022/01/03 08:09:08;;;;;;;5.15;1.80;;;9.20;99.90;;;;;;5095541;28;20202;-77
2022/01/03 08:11:35;;;;;;;4.22;1.42;;;9.20;99.90;;;;;;5095759;28;20217;-76
2022/01/03 08:14:02;;;;;;;8.10;1.90;;;9.20;99.90;;;;;;5109367;28;20240;-77
2022/01/03 08:16:29;;;;;;;6.75;2.40;;;9.20;99.90;;;;;;5109660;28;20288;-77
2022/01/03 08:18:56;;;;;;;7.95;2.45;;;9.30;99.90;;;;;;5109140;28;20198;-76
2022/01/03 08:21:24;;;;;;;3.75;1.95;;;9.30;99.90;;;;;;5111515;28;20204;-78
2022/01/03 08:23:52;;;;;;;6.47;2.22;;;9.50;99.90;;;;;;5101369;28;20232;-76
2022/01/03 08:26:19;;;;;;;4.53;2.05;;;9.60;99.90;;;;;;5106346;28;20234;-77
2022/01/03 08:28:46;;;;;;;4.30;1.85;;;9.60;99.90;;;;;;5091794;28;20196;-76
2022/01/03 08:31:13;;;;;;;8.27;2.50;;;9.70;99.90;;;;;;5106368;28;20201;-76
2022/01/03 08:33:40;;;;;;;8.70;2.20;;;9.60;99.90;;;;;;5096604;28;20228;-76
2022/01/03 08:36:07;;;;;;;4.60;2.05;;;9.50;99.90;;;;;;5100520;28;20576;-76
2022/01/03 08:38:36;;;;;;;8.55;2.00;;;9.50;99.90;;;;;;5092537;28;20276;-75
2022/01/03 08:41:03;;;;;;;5.63;1.65;;;9.40;99.90;;;;;;5097105;28;20250;-75
2022/01/03 08:43:30;;;;;;;6.82;1.92;;;9.40;99.90;;;;;;5095742;28;20357;-74
2022/01/03 08:45:57;;;;;;;5.03;1.80;;;9.50;99.90;;;;;;5093753;28;20195;-77
2022/01/03 08:48:24;;;;;;;5.97;1.90;;;9.50;99.90;;;;;;5097883;28;20194;-76
2022/01/03 08:50:51;;;;;;;5.57;1.77;;;9.60;99.90;;;;;;5108498;28;20247;-76
2022/01/03 08:53:21;;;;;;;7.43;1.85;;;9.70;99.90;;;;;;5111853;28;20194;-77
2022/01/03 08:55:49;;;;;;;5.70;1.83;;;9.80;99.90;;;;;;5122542;27;20217;-76
2022/01/03 08:58:18;;;;;;;7.00;1.60;;;9.80;99.90;;;;;;5089978;28;20325;-76
2022/01/03 09:00:45;;;;;;;4.38;2.25;;;10.00;99.90;;;;;;5093776;28;20194;-77
2022/01/03 09:03:12;;;;;;;6.32;1.92;;;9.90;99.90;;;;;;5094365;28;20230;-78
2022/01/03 09:05:39;;;;;;;4.35;1.80;;;9.90;99.90;;;;;;5095012;27;20305;-78
2022/01/03 09:08:07;;;;;;;4.47;2.55;;;10.00;99.90;;;;;;5097663;28;20203;-75
2022/01/03 09:10:34;;;;;;;7.88;2.30;;;10.10;99.90;;;;;;5102427;28;20195;-74
2022/01/03 09:13:02;;;;;;;4.68;2.30;;;10.10;99.90;;;;;;5107855;28;20193;-76
2022/01/03 09:15:29;;;;;;;6.55;2.30;;;10.10;99.90;;;;;;5097692;28;20322;-82
2022/01/03 09:17:57;;;;;;;9.20;2.25;;;10.10;99.90;;;;;;5094171;28;20202;-76
2022/01/03 09:20:24;;;;;;;4.28;2.25;;;10.10;99.90;;;;;;5104576;27;20191;-75
2022/01/03 09:22:55;;;;;;;8.70;2.50;;;10.10;99.90;;;;;;5094303;28;20310;-76
2022/01/03 09:30:55;;;;;;;9.43;2.47;;;10.10;99.90;;;;;;5111397;27;20200;-77
2022/01/03 09:33:22;;;;;;;4.55;2.10;;;10.10;99.90;;;;;;5102983;28;20195;-77
2022/01/03 09:35:51;;;;;;;9.13;2.28;;;10.20;99.90;;;;;;5108757;27;20199;-78
2022/01/03 09:38:18;;;;;;;4.50;1.75;;;10.20;99.90;;;;;;5123119;27;20198;-78
2022/01/03 09:40:47;;;;;;;4.68;2.10;;;10.20;99.90;;;;;;5108466;27;20719;-77
2022/01/03 09:43:18;;;;;;;5.40;2.42;;;10.20;99.90;;;;;;5106537;28;20218;-77
2022/01/03 09:45:47;;;;;;;8.13;2.78;;;10.30;99.90;;;;;;5095663;27;20274;-78
2022/01/03 09:48:15;;;;;;;6.72;2.25;;;10.30;99.90;;;;;;5107206;27;20286;-78
2022/01/03 09:50:44;;;;;;;6.40;2.47;;;10.30;99.90;;;;;;5092277;27;21145;-78
2022/01/03 09:53:13;;;;;;;7.32;2.60;;;10.30;99.90;;;;;;5102591;27;20191;-77
2022/01/03 09:55:42;;;;;;;7.28;2.67;;;10.30;99.90;;;;;;5099105;27;20272;-78
2022/01/03 09:58:10;;;;;;;6.45;2.70;;;10.30;99.90;;;;;;5104443;28;20343;-77
2022/01/03 10:00:38;;;;;;;6.38;2.60;;;10.30;99.90;;;;;;5099031;27;20213;-78
2022/01/03 10:03:06;;;;;;;4.32;2.10;;;10.30;99.90;;;;;;5116062;27;20210;-77
2022/01/03 10:05:33;;;;;;;5.40;2.40;;;10.30;99.90;;;;;;5096575;28;20223;-77
2022/01/03 10:08:01;;;;;;;4.30;2.40;;;10.30;99.90;;;;;;5101668;28;20192;-78
2022/01/03 10:10:29;;;;;;;6.85;2.38;;;10.40;99.90;;;;;;5106344;27;20198;-76
2022/01/03 10:12:56;;;;;;;4.82;2.25;;;10.50;99.90;;;;;;5117229;27;20194;-75
2022/01/03 10:15:24;;;;;;;4.40;2.20;;;10.50;99.90;;;;;;5113181;27;20600;-75
2022/01/03 10:17:52;;;;;;;5.00;2.45;;;10.60;99.90;;;;;;5115114;27;20209;-76
2022/01/03 10:20:19;;;;;;;6.32;2.45;;;10.60;99.90;;;;;;5111430;27;20198;-75
2022/01/03 10:22:47;;;;;;;6.68;2.30;;;10.70;99.90;;;;;;5106067;28;20198;-75
2022/01/03 10:25:19;;;;;;;6.50;2.65;;;10.80;99.90;;;;;;5113426;28;20301;-75
2022/01/03 10:27:50;;;;;;;5.70;2.40;;;10.90;99.90;;;;;;5109285;28;20323;-76
2022/01/03 10:30:32;;;;;;;8.15;2.22;;;11.00;99.90;;;;;;5092628;28;20196;-78
2022/01/03 10:33:02;;;;;;;4.70;2.20;;;11.10;99.90;;;;;;5103532;28;20558;-76
2022/01/03 10:35:39;;;;;;;5.53;2.45;;;11.20;99.90;;;;;;5101369;27;20615;-77
2022/01/03 10:38:07;;;;;;;7.00;2.65;;;11.30;99.90;;;;;;5092561;28;20215;-77
2022/01/03 10:40:34;;;;;;;4.38;2.25;;;11.30;99.90;;;;;;5095345;28;20288;-74
2022/01/03 10:43:15;;;;;;;6.03;2.58;;;11.50;99.90;;;;;;5092376;28;20242;-76
2022/01/03 10:45:42;;;;;;;2.97;1.85;;;11.50;99.90;;;;;;5103123;28;20203;-77
2022/01/03 10:48:29;;;;;;;6.50;2.75;;;11.60;99.90;;;;;;5111859;27;20194;-75
2022/01/03 10:50:58;;;;;;;6.28;2.50;;;11.70;99.90;;;;;;5104140;27;20211;-77
2022/01/03 10:53:36;;;;;;;4.57;2.00;;;11.70;99.90;;;;;;5091826;28;21893;-76
2022/01/03 10:56:33;;;;;;;7.78;2.50;;;11.70;99.90;;;;;;5105559;28;20286;-75
2022/01/03 10:59:01;;;;;;;5.07;2.63;;;11.80;99.90;;;;;;5100673;28;20191;-79
2022/01/03 11:01:30;;;;;;;7.78;2.72;;;11.90;99.90;;;;;;5099704;28;20749;-79
2022/01/03 11:04:01;;;;;;;4.80;2.10;;;12.00;99.90;;;;;;5092319;28;20249;-77
2022/01/03 11:06:49;;;;;;;4.85;2.45;;;12.00;99.90;;;;;;5100995;28;20195;-78
2022/01/03 11:12:20;;;;;;;5.10;2.55;;;12.20;99.90;;;;;;5094516;27;20202;-75
2022/01/03 11:14:47;;;;;;;4.20;2.28;;;12.20;99.90;;;;;;5097025;28;20267;-77
2022/01/03 11:17:32;;;;;;;7.28;2.45;;;12.30;99.90;;;;;;5096716;28;20194;-77
2022/01/03 11:20:00;;;;;;;4.55;2.28;;;12.40;99.90;;;;;;5099693;28;20806;-77
2022/01/03 11:22:42;;;;;;;4.60;2.03;;;12.40;99.90;;;;;;5106756;28;20202;-78
2022/01/03 11:25:10;;;;;;;5.55;2.35;;;12.40;99.90;;;;;;5118489;27;20305;-77
2022/01/03 11:27:40;;;;;;;5.85;1.90;;;12.40;99.90;;;;;;5117423;28;20259;-77
2022/01/03 11:30:09;;;;;;;5.15;1.90;;;12.50;99.90;;;;;;5121665;27;20204;-78
2022/01/03 11:32:39;;;;;;;4.00;2.15;;;12.50;99.90;;;;;;5110012;28;20204;-78
2022/01/03 11:35:09;;;;;;;3.60;1.98;;;12.70;99.90;;;;;;5100770;27;20305;-79
2022/01/03 11:37:40;;;;;;;5.90;2.20;;;12.70;99.90;;;;;;5100758;28;20653;-78
2022/01/03 11:40:11;;;;;;;4.60;2.00;;;12.80;99.90;;;;;;5112615;28;20219;-76
2022/01/03 11:42:39;;;;;;;5.68;2.05;;;12.90;99.90;;;;;;5131542;28;20191;-76
2022/01/03 11:45:07;;;;;;;5.45;2.13;;;12.90;99.90;;;;;;5125156;27;20221;-89
2022/01/03 11:47:36;;;;;;;4.05;1.80;;;13.00;99.90;;;;;;5132444;28;20255;-89
2022/01/03 11:50:03;;;;;;;3.47;2.30;;;13.00;99.90;;;;;;5129318;28;20222;-88
2022/01/03 11:52:36;;;;;;;5.03;2.75;;;13.00;99.90;;;;;;5105954;28;20225;-88
2022/01/03 11:55:05;;;;;;;5.38;1.95;;;13.00;99.90;;;;;;5099513;28;20279;-88
2022/01/03 11:57:57;;;;;;;3.40;1.80;;;13.00;99.90;;;;;;5104216;28;20661;-89
2022/01/03 12:05:59;;;;;;;3.87;2.33;;;13.30;99.90;;;;;;5107098;28;20224;-90
2022/01/03 12:08:29;;;;;;;4.55;1.80;;;13.30;99.90;;;;;;5113499;28;20445;-91
2022/01/03 12:11:00;;;;;;;6.50;2.10;;;13.40;99.90;;;;;;5089720;28;20207;-87
2022/01/03 12:13:47;;;;;;;3.15;1.80;;;13.30;99.90;;;;;;5104679;28;20214;-82
2022/01/03 12:16:15;;;;;;;4.30;2.30;;;13.30;99.90;;;;;;5097722;28;20202;-81
2022/01/03 12:18:58;;;;;;;4.45;1.60;;;13.20;99.90;;;;;;5102036;28;20257;-81
2022/01/03 12:21:52;;;;;;;3.83;1.73;;;13.10;99.90;;;;;;5096929;28;20567;-79
2022/01/03 12:24:52;;;;;;;4.90;2.22;;;13.00;99.90;;;;;;5100418;28;20249;-81
2022/01/03 12:27:33;;;;;;;4.72;1.52;;;12.80;99.90;;;;;;5093713;28;20195;-82
2022/01/03 12:30:09;;;;;;;3.60;1.48;;;12.60;99.90;;;;;;5090119;28;20192;-81
2022/01/03 12:32:37;;;;;;;2.70;1.15;;;12.60;99.90;;;;;;5103312;28;20649;-81
2022/01/03 12:35:22;;;;;;;3.03;1.50;;;12.50;99.90;;;;;;5106937;28;20692;-81
2022/01/03 12:38:15;;;;;;;2.67;1.40;;;12.50;99.90;;;;;;5109105;27;20194;-82
2022/01/03 12:40:52;;;;;;;3.20;1.33;;;12.50;99.90;;;;;;5094509;28;20206;-80
2022/01/03 12:43:33;;;;;;;3.53;1.65;;;12.40;99.90;;;;;;5096816;27;20219;-80
2022/01/03 12:46:00;;;;;;;2.08;1.13;;;12.40;99.90;;;;;;5106751;28;20653;-79
2022/01/03 12:48:32;;;;;;;2.65;1.63;;;12.30;99.90;;;;;;5106781;28;20191;-80
2022/01/03 12:51:12;;;;;;;1.75;1.30;;;12.40;99.90;;;;;;5118228;27;20298;-81
2022/01/03 12:53:43;;;;;;;2.10;1.23;;;12.40;99.90;;;;;;5113382;27;20866;-81
2022/01/03 12:56:13;;;;;;;2.28;1.02;;;12.30;99.90;;;;;;5109214;28;20198;-80
2022/01/03 12:58:45;;;;;;;2.42;1.30;;;12.30;99.90;;;;;;5103744;28;20194;-80
2022/01/03 13:01:28;;;;;;;3.15;1.10;;;12.30;99.90;;;;;;5107278;28;20264;-81
2022/01/03 13:03:57;;;;;;;3.65;1.38;;;12.30;99.90;;;;;;5093078;27;20223;-81
2022/01/03 13:06:28;;;;;;;2.58;1.25;;;12.30;99.90;;;;;;5112532;28;20218;-81
2022/01/03 13:09:07;;;;;;;4.63;1.65;;;12.20;99.90;;;;;;5102610;28;20934;-81
2022/01/03 13:11:40;;;;;;;3.45;1.10;;;12.20;99.90;;;;;;5108901;28;20285;-81
2022/01/03 13:14:09;;;;;;;2.70;1.20;;;12.10;99.90;;;;;;5098299;27;20294;-81
2022/01/03 13:16:39;;;;;;;3.15;1.10;;;12.10;99.90;;;;;;5096841;28;20291;-81
2022/01/03 13:19:08;;;;;;;2.53;1.20;;;12.10;99.90;;;;;;5102364;27;20196;-81
2022/01/03 13:21:38;;;;;;;3.97;1.38;;;12.10;99.90;;;;;;5100825;27;20278;-81
2022/01/03 13:24:09;;;;;;;3.35;1.08;;;12.20;99.90;;;;;;5094092;28;20685;-80
2022/01/03 13:26:54;;;;;;;3.17;1.38;;;12.10;99.90;;;;;;5106122;28;20199;-81